BAW800 EGLL-BIKF
Flight info
| Callsign | BAW800 |
|---|---|
| Flight time | 2h 48m |
| Altitude | 38000 |
| Route | UMLAT T418 WELIN T420 TNT UN57 POL UN601 RIBEL DCT ERSON DCT STN DCT BARKU DCT RATSU/M079F380 DCT ALDAN DCT ASRUN ASRUN4N |
| Aircraft | A20N/M-SDE2E3FGHIRWXY/LB1 |
Departure
| Time | 2026-05-04 10:52 |
|---|---|
| Airport | London Heathrow Airport (EGLL) |
Arrival
| Time | 2026-05-04 13:41 |
|---|---|
| Airport | Keflavik International Airport (BIKF) |
| Time | Latitude | Longitude | Altitude | Speed | Heading |
|---|---|---|---|---|---|
| 2026-05-04 09:23 | 51.47361 | -0.48585 | 91 ft | 0 kts | 270° |
| 2026-05-04 10:35 | 51.47361 | -0.48567 | 89 ft | 4 kts | 270° |
| 2026-05-04 10:35 | 51.47361 | -0.48529 | 89 ft | 2 kts | 270° |
| 2026-05-04 10:36 | 51.47364 | -0.48492 | 90 ft | 4 kts | 235° |
| 2026-05-04 10:36 | 51.47382 | -0.48474 | 91 ft | 3 kts | 179° |
| 2026-05-04 10:36 | 51.47401 | -0.48474 | 89 ft | 0 kts | 179° |
| 2026-05-04 10:41 | 51.47359 | -0.48474 | 91 ft | 13 kts | 179° |
| 2026-05-04 10:41 | 51.47249 | -0.48474 | 91 ft | 16 kts | 180° |
| 2026-05-04 10:41 | 51.47143 | -0.48473 | 89 ft | 15 kts | 180° |
| 2026-05-04 10:41 | 51.47043 | -0.48473 | 90 ft | 14 kts | 180° |
| 2026-05-04 10:42 | 51.46949 | -0.48472 | 90 ft | 13 kts | 180° |
| 2026-05-04 10:42 | 51.46861 | -0.48471 | 89 ft | 12 kts | 179° |
| 2026-05-04 10:42 | 51.46776 | -0.48467 | 89 ft | 14 kts | 172° |
| 2026-05-04 10:42 | 51.46741 | -0.48304 | 89 ft | 19 kts | 89° |
| 2026-05-04 10:43 | 51.46742 | -0.48099 | 89 ft | 18 kts | 90° |
| 2026-05-04 10:44 | 51.46747 | -0.46849 | 93 ft | 14 kts | 90° |
| 2026-05-04 10:45 | 51.46747 | -0.46696 | 93 ft | 13 kts | 89° |
| 2026-05-04 10:45 | 51.46748 | -0.46548 | 92 ft | 14 kts | 89° |
| 2026-05-04 10:45 | 51.46747 | -0.46370 | 91 ft | 17 kts | 88° |
| 2026-05-04 10:45 | 51.46747 | -0.46158 | 93 ft | 21 kts | 90° |
| 2026-05-04 10:46 | 51.46748 | -0.45924 | 92 ft | 21 kts | 90° |
| 2026-05-04 10:46 | 51.46749 | -0.45696 | 90 ft | 20 kts | 90° |
| 2026-05-04 10:46 | 51.46750 | -0.45475 | 89 ft | 20 kts | 89° |
| 2026-05-04 10:46 | 51.46751 | -0.45262 | 89 ft | 18 kts | 89° |
| 2026-05-04 10:47 | 51.46753 | -0.45061 | 89 ft | 18 kts | 92° |
| 2026-05-04 10:47 | 51.46752 | -0.44870 | 89 ft | 17 kts | 90° |
| 2026-05-04 10:47 | 51.46752 | -0.44685 | 89 ft | 16 kts | 90° |
| 2026-05-04 10:47 | 51.46752 | -0.44504 | 89 ft | 16 kts | 90° |
| 2026-05-04 10:49 | 51.46728 | -0.43605 | 91 ft | 8 kts | 171° |
| 2026-05-04 10:49 | 51.46694 | -0.43603 | 89 ft | 7 kts | 180° |
| 2026-05-04 10:50 | 51.46645 | -0.43605 | 89 ft | 9 kts | 181° |
| 2026-05-04 10:51 | 51.46489 | -0.45094 | 91 ft | 124 kts | 269° |
| 2026-05-04 10:52 | 51.46483 | -0.46804 | 108 ft | 177 kts | 268° |
| 2026-05-04 10:52 | 51.46467 | -0.48799 | 593 ft | 181 kts | 271° |
| 2026-05-04 10:52 | 51.46482 | -0.50808 | 1277 ft | 179 kts | 276° |
| 2026-05-04 10:54 | 51.51808 | -0.65736 | 5343 ft | 269 kts | 306° |
| 2026-05-04 10:54 | 51.53207 | -0.67702 | 5820 ft | 270 kts | 334° |
| 2026-05-04 10:56 | 51.66416 | -0.69342 | 6016 ft | 273 kts | 356° |
| 2026-05-04 10:56 | 51.68315 | -0.69550 | 6022 ft | 273 kts | 356° |
| 2026-05-04 10:56 | 51.70218 | -0.69760 | 6375 ft | 276 kts | 356° |
| 2026-05-04 10:57 | 51.72146 | -0.69975 | 7139 ft | 279 kts | 355° |
| 2026-05-04 10:57 | 51.74095 | -0.70192 | 7924 ft | 283 kts | 355° |
| 2026-05-04 10:57 | 51.76069 | -0.70413 | 8756 ft | 286 kts | 355° |
| 2026-05-04 10:57 | 51.78061 | -0.70637 | 9595 ft | 289 kts | 355° |
| 2026-05-04 10:58 | 51.80089 | -0.70866 | 10299 ft | 297 kts | 355° |
| 2026-05-04 10:58 | 51.82218 | -0.71108 | 10644 ft | 317 kts | 355° |
| 2026-05-04 10:58 | 51.84490 | -0.71368 | 10964 ft | 337 kts | 355° |
| 2026-05-04 10:58 | 51.86874 | -0.71638 | 11468 ft | 349 kts | 355° |
| 2026-05-04 10:59 | 51.89325 | -0.71913 | 12146 ft | 356 kts | 355° |
| 2026-05-04 10:59 | 51.91811 | -0.72190 | 12906 ft | 360 kts | 355° |
| 2026-05-04 10:59 | 51.94330 | -0.72472 | 13672 ft | 364 kts | 355° |
| 2026-05-04 10:59 | 51.96874 | -0.72758 | 14358 ft | 369 kts | 355° |
| 2026-05-04 11:00 | 51.99443 | -0.73048 | 15025 ft | 373 kts | 355° |
| 2026-05-04 11:01 | 52.17388 | -0.81344 | 19545 ft | 395 kts | 340° |
| 2026-05-04 11:02 | 52.20015 | -0.82742 | 20139 ft | 398 kts | 340° |
| 2026-05-04 11:02 | 52.22651 | -0.84161 | 20711 ft | 400 kts | 337° |
| 2026-05-04 11:05 | 52.57644 | -1.18155 | 26968 ft | 436 kts | 327° |
| 2026-05-04 11:06 | 52.60237 | -1.20771 | 27321 ft | 439 kts | 327° |
| 2026-05-04 11:06 | 52.62849 | -1.23408 | 27674 ft | 441 kts | 327° |
| 2026-05-04 11:06 | 52.65475 | -1.26064 | 27992 ft | 444 kts | 327° |
| 2026-05-04 11:06 | 52.68115 | -1.28738 | 28356 ft | 446 kts | 327° |
| 2026-05-04 11:08 | 52.86722 | -1.47728 | 31050 ft | 448 kts | 329° |
| 2026-05-04 11:10 | 53.05230 | -1.66528 | 33335 ft | 441 kts | 337° |
| 2026-05-04 11:12 | 53.25221 | -1.79301 | 34924 ft | 439 kts | 342° |
| 2026-05-04 11:12 | 53.28074 | -1.81072 | 35214 ft | 437 kts | 342° |
| 2026-05-04 11:12 | 53.30918 | -1.82845 | 35408 ft | 437 kts | 341° |
| 2026-05-04 11:12 | 53.33770 | -1.84627 | 35574 ft | 437 kts | 341° |
| 2026-05-04 11:13 | 53.36621 | -1.86414 | 35738 ft | 438 kts | 341° |
| 2026-05-04 11:13 | 53.39475 | -1.88205 | 35915 ft | 438 kts | 341° |
| 2026-05-04 11:13 | 53.42331 | -1.90000 | 36067 ft | 438 kts | 341° |
| 2026-05-04 11:13 | 53.45189 | -1.91799 | 36222 ft | 439 kts | 341° |
| 2026-05-04 11:14 | 53.48045 | -1.93600 | 36373 ft | 439 kts | 341° |
| 2026-05-04 11:14 | 53.50902 | -1.95403 | 36520 ft | 439 kts | 340° |
| 2026-05-04 11:14 | 53.53760 | -1.97210 | 36659 ft | 439 kts | 340° |
| 2026-05-04 11:16 | 53.73749 | -2.09918 | 37647 ft | 439 kts | 340° |
| 2026-05-04 11:16 | 53.76595 | -2.11787 | 37829 ft | 438 kts | 339° |
| 2026-05-04 11:16 | 53.79417 | -2.13688 | 37951 ft | 438 kts | 339° |
| 2026-05-04 11:17 | 53.85083 | -2.17575 | 38069 ft | 441 kts | 338° |
| 2026-05-04 11:19 | 54.07746 | -2.33583 | 38064 ft | 440 kts | 336° |
| 2026-05-04 11:19 | 54.13307 | -2.37939 | 38058 ft | 440 kts | 336° |
| 2026-05-04 11:20 | 54.18873 | -2.42300 | 38058 ft | 440 kts | 336° |
| 2026-05-04 11:20 | 54.24437 | -2.46643 | 38059 ft | 439 kts | 336° |
| 2026-05-04 11:22 | 54.46556 | -2.63983 | 38054 ft | 437 kts | 336° |
| 2026-05-04 11:23 | 54.52068 | -2.68334 | 38052 ft | 435 kts | 335° |
| 2026-05-04 11:25 | 54.71246 | -2.83590 | 38056 ft | 434 kts | 335° |
| 2026-05-04 11:25 | 54.76717 | -2.87970 | 38055 ft | 432 kts | 335° |
| 2026-05-04 11:27 | 55.01166 | -3.07705 | 38051 ft | 430 kts | 334° |
| 2026-05-04 11:28 | 55.06537 | -3.12076 | 38047 ft | 429 kts | 334° |
| 2026-05-04 11:28 | 55.11946 | -3.16492 | 38048 ft | 429 kts | 334° |
| 2026-05-04 11:29 | 55.17356 | -3.20922 | 38044 ft | 429 kts | 334° |
| 2026-05-04 11:29 | 55.22758 | -3.25358 | 38046 ft | 429 kts | 333° |
| 2026-05-04 11:33 | 55.60384 | -3.56628 | 38024 ft | 424 kts | 334° |
| 2026-05-04 11:33 | 55.65718 | -3.61113 | 38030 ft | 425 kts | 333° |
| 2026-05-04 11:34 | 55.71054 | -3.65618 | 38025 ft | 424 kts | 334° |
| 2026-05-04 11:34 | 55.76375 | -3.70122 | 38024 ft | 424 kts | 333° |
| 2026-05-04 11:35 | 55.81687 | -3.74637 | 38019 ft | 422 kts | 333° |
| 2026-05-04 11:35 | 55.86984 | -3.79149 | 38025 ft | 423 kts | 333° |
| 2026-05-04 11:36 | 55.92293 | -3.83686 | 38024 ft | 423 kts | 333° |
| 2026-05-04 11:36 | 55.96701 | -3.87458 | 38030 ft | 423 kts | 333° |
| 2026-05-04 11:37 | 56.02006 | -3.92018 | 38033 ft | 423 kts | 333° |
| 2026-05-04 11:37 | 56.07287 | -3.96572 | 38028 ft | 422 kts | 333° |
| 2026-05-04 11:38 | 56.12584 | -4.01152 | 38025 ft | 423 kts | 333° |
| 2026-05-04 11:38 | 56.17884 | -4.05743 | 38023 ft | 422 kts | 333° |
| 2026-05-04 11:39 | 56.23186 | -4.10353 | 38023 ft | 423 kts | 333° |
| 2026-05-04 11:41 | 56.41587 | -4.26468 | 38021 ft | 419 kts | 333° |
| 2026-05-04 11:41 | 56.46823 | -4.31131 | 38022 ft | 419 kts | 331° |
| 2026-05-04 11:42 | 56.51932 | -4.36205 | 38023 ft | 418 kts | 329° |
| 2026-05-04 11:42 | 56.56973 | -4.41445 | 38028 ft | 417 kts | 328° |
| 2026-05-04 11:43 | 56.62017 | -4.46687 | 38031 ft | 417 kts | 328° |
| 2026-05-04 11:43 | 56.67064 | -4.51903 | 38030 ft | 417 kts | 329° |
| 2026-05-04 11:44 | 56.72110 | -4.57114 | 38030 ft | 417 kts | 329° |
| 2026-05-04 11:44 | 56.77160 | -4.62344 | 38035 ft | 417 kts | 328° |
| 2026-05-04 11:45 | 56.82206 | -4.67583 | 38029 ft | 417 kts | 328° |
| 2026-05-04 11:45 | 56.87248 | -4.72841 | 38030 ft | 417 kts | 328° |
| 2026-05-04 11:46 | 56.92285 | -4.78112 | 38032 ft | 418 kts | 328° |
| 2026-05-04 11:46 | 56.97333 | -4.83409 | 38031 ft | 417 kts | 328° |
| 2026-05-04 11:47 | 57.02370 | -4.88711 | 38053 ft | 418 kts | 327° |
| 2026-05-04 11:47 | 57.07395 | -4.94016 | 38028 ft | 416 kts | 327° |
| 2026-05-04 11:48 | 57.12406 | -4.99322 | 38035 ft | 415 kts | 327° |
| 2026-05-04 11:48 | 57.17406 | -5.04636 | 38031 ft | 415 kts | 327° |
| 2026-05-04 11:49 | 57.22411 | -5.09972 | 38033 ft | 415 kts | 327° |
| 2026-05-04 11:49 | 57.27381 | -5.15286 | 38034 ft | 415 kts | 327° |
| 2026-05-04 11:50 | 57.32361 | -5.20625 | 38023 ft | 412 kts | 326° |
| 2026-05-04 11:50 | 57.37309 | -5.25949 | 38035 ft | 411 kts | 326° |
| 2026-05-04 11:51 | 57.42245 | -5.31280 | 38030 ft | 411 kts | 326° |
| 2026-05-04 11:51 | 57.47184 | -5.36629 | 38031 ft | 411 kts | 326° |
| 2026-05-04 11:52 | 57.52114 | -5.41984 | 38017 ft | 411 kts | 326° |
| 2026-05-04 11:52 | 57.57054 | -5.47368 | 38025 ft | 412 kts | 326° |
| 2026-05-04 11:53 | 57.61999 | -5.52773 | 38021 ft | 412 kts | 326° |
| 2026-05-04 11:53 | 57.66944 | -5.58197 | 38022 ft | 412 kts | 326° |
| 2026-05-04 11:55 | 57.86710 | -5.80048 | 38005 ft | 413 kts | 325° |
| 2026-05-04 11:56 | 57.91623 | -5.85523 | 37996 ft | 413 kts | 325° |
| 2026-05-04 11:56 | 57.96567 | -5.91050 | 38006 ft | 413 kts | 325° |
| 2026-05-04 11:57 | 58.01504 | -5.96588 | 37998 ft | 413 kts | 325° |
| 2026-05-04 11:57 | 58.06437 | -6.02139 | 38025 ft | 413 kts | 324° |
| 2026-05-04 11:58 | 58.11373 | -6.07711 | 37988 ft | 412 kts | 324° |
| 2026-05-04 11:58 | 58.16297 | -6.13288 | 37995 ft | 412 kts | 324° |
| 2026-05-04 11:59 | 58.21207 | -6.18900 | 37995 ft | 412 kts | 323° |
| 2026-05-04 11:59 | 58.26020 | -6.24762 | 37993 ft | 410 kts | 322° |
| 2026-05-04 12:00 | 58.30786 | -6.30728 | 37988 ft | 410 kts | 322° |
| 2026-05-04 12:00 | 58.35550 | -6.36698 | 37995 ft | 409 kts | 322° |
| 2026-05-04 12:01 | 58.40311 | -6.42655 | 37997 ft | 409 kts | 322° |
| 2026-05-04 12:02 | 58.56929 | -6.63555 | 37989 ft | 409 kts | 322° |
| 2026-05-04 12:03 | 58.61680 | -6.69576 | 37992 ft | 409 kts | 322° |
| 2026-05-04 12:03 | 58.66431 | -6.75616 | 37990 ft | 409 kts | 322° |
| 2026-05-04 12:04 | 58.71176 | -6.81668 | 37990 ft | 409 kts | 322° |
| 2026-05-04 12:04 | 58.75918 | -6.87738 | 37990 ft | 409 kts | 322° |
| 2026-05-04 12:05 | 58.80658 | -6.93825 | 37990 ft | 409 kts | 322° |
| 2026-05-04 12:05 | 58.85391 | -6.99924 | 38006 ft | 409 kts | 322° |
| 2026-05-04 12:06 | 58.90121 | -7.06038 | 37992 ft | 409 kts | 322° |
| 2026-05-04 12:06 | 58.94848 | -7.12169 | 37994 ft | 409 kts | 321° |
| 2026-05-04 12:07 | 58.99569 | -7.18313 | 37994 ft | 409 kts | 321° |
| 2026-05-04 12:07 | 59.04287 | -7.24475 | 37996 ft | 409 kts | 321° |
| 2026-05-04 12:08 | 59.09001 | -7.30651 | 37998 ft | 409 kts | 321° |
| 2026-05-04 12:08 | 59.13713 | -7.36846 | 37993 ft | 408 kts | 321° |
| 2026-05-04 12:09 | 59.18407 | -7.43037 | 38001 ft | 407 kts | 321° |
| 2026-05-04 12:09 | 59.23094 | -7.49239 | 37998 ft | 407 kts | 321° |
| 2026-05-04 12:10 | 59.27781 | -7.55465 | 38003 ft | 407 kts | 321° |
| 2026-05-04 12:10 | 59.32432 | -7.61664 | 37999 ft | 407 kts | 321° |
| 2026-05-04 12:11 | 59.37110 | -7.67918 | 38003 ft | 407 kts | 321° |
| 2026-05-04 12:11 | 59.41780 | -7.74182 | 38004 ft | 406 kts | 321° |
| 2026-05-04 12:12 | 59.46434 | -7.80448 | 37988 ft | 405 kts | 321° |
| 2026-05-04 12:12 | 59.51085 | -7.86730 | 38003 ft | 406 kts | 321° |
| 2026-05-04 12:14 | 59.69649 | -8.12020 | 38013 ft | 404 kts | 321° |
| 2026-05-04 12:15 | 59.74263 | -8.18360 | 38012 ft | 404 kts | 321° |
| 2026-05-04 12:15 | 59.78883 | -8.24730 | 38012 ft | 404 kts | 321° |
| 2026-05-04 12:16 | 59.83495 | -8.31111 | 38015 ft | 404 kts | 321° |
| 2026-05-04 12:16 | 59.88102 | -8.37507 | 38015 ft | 404 kts | 321° |
| 2026-05-04 12:17 | 59.92707 | -8.43922 | 38028 ft | 404 kts | 321° |
| 2026-05-04 12:17 | 59.97309 | -8.50353 | 38020 ft | 404 kts | 321° |
| 2026-05-04 12:18 | 60.01902 | -8.56796 | 38024 ft | 404 kts | 321° |
| 2026-05-04 12:18 | 60.06499 | -8.63267 | 38023 ft | 404 kts | 321° |
| 2026-05-04 12:19 | 60.11083 | -8.69743 | 38022 ft | 404 kts | 321° |
| 2026-05-04 12:19 | 60.15674 | -8.76250 | 38027 ft | 404 kts | 321° |
| 2026-05-04 12:20 | 60.20261 | -8.82774 | 38034 ft | 404 kts | 321° |
| 2026-05-04 12:20 | 60.24840 | -8.89309 | 38033 ft | 403 kts | 320° |
| 2026-05-04 12:21 | 60.29384 | -8.95817 | 38028 ft | 403 kts | 320° |
| 2026-05-04 12:21 | 60.33961 | -9.02397 | 38036 ft | 403 kts | 320° |
| 2026-05-04 12:22 | 60.38526 | -9.08981 | 38030 ft | 403 kts | 320° |
| 2026-05-04 12:22 | 60.43095 | -9.15593 | 38040 ft | 403 kts | 320° |
| 2026-05-04 12:23 | 60.47654 | -9.22216 | 38032 ft | 403 kts | 320° |
| 2026-05-04 12:23 | 60.52211 | -9.28858 | 38030 ft | 403 kts | 320° |
| 2026-05-04 12:24 | 60.55988 | -9.34382 | 38031 ft | 403 kts | 320° |
| 2026-05-04 12:24 | 60.60538 | -9.41058 | 38032 ft | 403 kts | 320° |
| 2026-05-04 12:25 | 60.65083 | -9.47751 | 38035 ft | 403 kts | 320° |
| 2026-05-04 12:25 | 60.69617 | -9.54452 | 38034 ft | 403 kts | 320° |
| 2026-05-04 12:26 | 60.74150 | -9.61174 | 38027 ft | 402 kts | 320° |
| 2026-05-04 12:26 | 60.78668 | -9.67897 | 38036 ft | 402 kts | 320° |
| 2026-05-04 12:27 | 60.83190 | -9.74652 | 38037 ft | 402 kts | 320° |
| 2026-05-04 12:27 | 60.87701 | -9.81415 | 38037 ft | 402 kts | 320° |
| 2026-05-04 12:28 | 60.92209 | -9.88197 | 38037 ft | 402 kts | 320° |
| 2026-05-04 12:28 | 60.96708 | -9.95004 | 38036 ft | 401 kts | 318° |
| 2026-05-04 12:29 | 61.00576 | -10.02995 | 38036 ft | 395 kts | 303° |
| 2026-05-04 12:29 | 61.03520 | -10.12618 | 38037 ft | 394 kts | 299° |
| 2026-05-04 12:30 | 61.06216 | -10.22477 | 38039 ft | 394 kts | 298° |
| 2026-05-04 12:30 | 61.08847 | -10.32328 | 38040 ft | 394 kts | 298° |
| 2026-05-04 12:31 | 61.11504 | -10.42251 | 38037 ft | 394 kts | 298° |
| 2026-05-04 12:31 | 61.14167 | -10.52170 | 38036 ft | 394 kts | 298° |
| 2026-05-04 12:32 | 61.18156 | -10.67081 | 38037 ft | 394 kts | 298° |
| 2026-05-04 12:33 | 61.20805 | -10.77041 | 38037 ft | 394 kts | 297° |
| 2026-05-04 12:33 | 61.23446 | -10.87019 | 38037 ft | 394 kts | 297° |
| 2026-05-04 12:34 | 61.26079 | -10.97010 | 38040 ft | 394 kts | 297° |
| 2026-05-04 12:34 | 61.28704 | -11.07017 | 38040 ft | 394 kts | 297° |
| 2026-05-04 12:35 | 61.31304 | -11.16971 | 38039 ft | 394 kts | 297° |
| 2026-05-04 12:35 | 61.33912 | -11.27002 | 38020 ft | 394 kts | 297° |
| 2026-05-04 12:36 | 61.36519 | -11.37074 | 38036 ft | 395 kts | 297° |
| 2026-05-04 12:36 | 61.39116 | -11.47156 | 38034 ft | 395 kts | 297° |
| 2026-05-04 12:37 | 61.41708 | -11.57263 | 38035 ft | 395 kts | 297° |
| 2026-05-04 12:37 | 61.44292 | -11.67385 | 38035 ft | 394 kts | 297° |
| 2026-05-04 12:38 | 61.46866 | -11.77511 | 38039 ft | 394 kts | 297° |
| 2026-05-04 12:38 | 61.49432 | -11.87654 | 38035 ft | 394 kts | 297° |
| 2026-05-04 12:39 | 61.51989 | -11.97806 | 38030 ft | 394 kts | 297° |
| 2026-05-04 12:39 | 61.54541 | -12.07984 | 38028 ft | 394 kts | 297° |
| 2026-05-04 12:40 | 61.57083 | -12.18168 | 38038 ft | 393 kts | 296° |
| 2026-05-04 12:40 | 61.59596 | -12.28289 | 38037 ft | 393 kts | 296° |
| 2026-05-04 12:41 | 61.62118 | -12.38486 | 38042 ft | 393 kts | 296° |
| 2026-05-04 12:41 | 61.64631 | -12.48699 | 38043 ft | 393 kts | 296° |
| 2026-05-04 12:42 | 61.67138 | -12.58934 | 38039 ft | 393 kts | 296° |
| 2026-05-04 12:42 | 61.69638 | -12.69187 | 38040 ft | 393 kts | 296° |
| 2026-05-04 12:43 | 61.72130 | -12.79458 | 38047 ft | 393 kts | 296° |
| 2026-05-04 12:43 | 61.74615 | -12.89746 | 38048 ft | 393 kts | 296° |
| 2026-05-04 12:44 | 61.77091 | -13.00046 | 38045 ft | 393 kts | 296° |
| 2026-05-04 12:44 | 61.79546 | -13.10306 | 38056 ft | 393 kts | 296° |
| 2026-05-04 12:45 | 61.82023 | -13.20705 | 38058 ft | 393 kts | 296° |
| 2026-05-04 12:45 | 61.84474 | -13.31048 | 38050 ft | 393 kts | 296° |
| 2026-05-04 12:46 | 61.86919 | -13.41415 | 38050 ft | 393 kts | 296° |
| 2026-05-04 12:46 | 61.89341 | -13.51734 | 38061 ft | 393 kts | 296° |
| 2026-05-04 12:47 | 61.91773 | -13.62145 | 38053 ft | 394 kts | 295° |
| 2026-05-04 12:47 | 61.94195 | -13.72566 | 38053 ft | 394 kts | 295° |
| 2026-05-04 12:48 | 61.96609 | -13.82999 | 38064 ft | 393 kts | 295° |
| 2026-05-04 12:48 | 61.99015 | -13.93447 | 38061 ft | 393 kts | 295° |
| 2026-05-04 12:49 | 62.01412 | -14.03907 | 38063 ft | 393 kts | 295° |
| 2026-05-04 12:49 | 62.03803 | -14.14393 | 38061 ft | 393 kts | 295° |
| 2026-05-04 12:50 | 62.06185 | -14.24893 | 38073 ft | 393 kts | 295° |
| 2026-05-04 12:50 | 62.08559 | -14.35407 | 38108 ft | 393 kts | 295° |
| 2026-05-04 12:51 | 62.10925 | -14.45939 | 38069 ft | 393 kts | 295° |
| 2026-05-04 12:51 | 62.13266 | -14.56410 | 38078 ft | 393 kts | 295° |
| 2026-05-04 12:52 | 62.15619 | -14.66987 | 38065 ft | 393 kts | 295° |
| 2026-05-04 12:52 | 62.17964 | -14.77580 | 38075 ft | 394 kts | 295° |
| 2026-05-04 12:53 | 62.20300 | -14.88185 | 38074 ft | 394 kts | 295° |
| 2026-05-04 12:53 | 62.22628 | -14.98806 | 38086 ft | 394 kts | 295° |
| 2026-05-04 12:54 | 62.24947 | -15.09445 | 38083 ft | 394 kts | 294° |
| 2026-05-04 12:54 | 62.27261 | -15.20109 | 38084 ft | 394 kts | 294° |
| 2026-05-04 12:55 | 62.29562 | -15.30770 | 38117 ft | 394 kts | 295° |
| 2026-05-04 12:55 | 62.31841 | -15.41382 | 38091 ft | 393 kts | 295° |
| 2026-05-04 12:56 | 62.34120 | -15.52053 | 38095 ft | 393 kts | 294° |
| 2026-05-04 12:56 | 62.36395 | -15.62755 | 38094 ft | 392 kts | 294° |
| 2026-05-04 12:57 | 62.38658 | -15.73453 | 38103 ft | 393 kts | 294° |
| 2026-05-04 12:57 | 62.40913 | -15.84173 | 38103 ft | 393 kts | 294° |
| 2026-05-04 12:58 | 62.43161 | -15.94912 | 38100 ft | 393 kts | 294° |
| 2026-05-04 12:58 | 62.45401 | -16.05670 | 38105 ft | 393 kts | 294° |
| 2026-05-04 12:59 | 62.47633 | -16.16443 | 38108 ft | 393 kts | 294° |
| 2026-05-04 12:59 | 62.49854 | -16.27220 | 38107 ft | 392 kts | 294° |
| 2026-05-04 13:00 | 62.52067 | -16.38018 | 38068 ft | 391 kts | 294° |
| 2026-05-04 13:00 | 62.54267 | -16.48806 | 38114 ft | 392 kts | 294° |
| 2026-05-04 13:01 | 62.56466 | -16.59650 | 38112 ft | 393 kts | 294° |
| 2026-05-04 13:01 | 62.58657 | -16.70503 | 38110 ft | 393 kts | 293° |
| 2026-05-04 13:02 | 62.60841 | -16.81385 | 38111 ft | 393 kts | 293° |
| 2026-05-04 13:02 | 62.63015 | -16.92275 | 38116 ft | 393 kts | 293° |
| 2026-05-04 13:03 | 62.65180 | -17.03181 | 38119 ft | 393 kts | 293° |
| 2026-05-04 13:03 | 62.67324 | -17.14036 | 38119 ft | 393 kts | 293° |
| 2026-05-04 13:04 | 62.69473 | -17.24974 | 38122 ft | 393 kts | 293° |
| 2026-05-04 13:04 | 62.71614 | -17.35932 | 38127 ft | 393 kts | 293° |
| 2026-05-04 13:05 | 62.73747 | -17.46911 | 38125 ft | 393 kts | 292° |
| 2026-05-04 13:05 | 62.75873 | -17.57912 | 38124 ft | 393 kts | 292° |
| 2026-05-04 13:06 | 62.77990 | -17.68925 | 38129 ft | 394 kts | 292° |
| 2026-05-04 13:06 | 62.80100 | -17.79962 | 38131 ft | 394 kts | 292° |
| 2026-05-04 13:07 | 62.82201 | -17.91020 | 38132 ft | 393 kts | 292° |
| 2026-05-04 13:07 | 62.84292 | -18.02078 | 38135 ft | 393 kts | 292° |
| 2026-05-04 13:08 | 62.86375 | -18.13159 | 38138 ft | 393 kts | 292° |
| 2026-05-04 13:08 | 62.88448 | -18.24254 | 38137 ft | 393 kts | 292° |
| 2026-05-04 13:09 | 62.90507 | -18.35330 | 38140 ft | 392 kts | 292° |
| 2026-05-04 13:09 | 62.92559 | -18.46428 | 37542 ft | 396 kts | 292° |
| 2026-05-04 13:09 | 62.93597 | -18.52067 | 36718 ft | 401 kts | 292° |
| 2026-05-04 13:10 | 62.94642 | -18.57760 | 35958 ft | 403 kts | 292° |
| 2026-05-04 13:10 | 62.95682 | -18.63444 | 35417 ft | 395 kts | 292° |
| 2026-05-04 13:10 | 62.96355 | -18.67131 | 35062 ft | 390 kts | 292° |
| 2026-05-04 13:10 | 62.97720 | -18.74291 | 34428 ft | 377 kts | 297° |
| 2026-05-04 13:11 | 62.99065 | -18.79118 | 34123 ft | 365 kts | 302° |
| 2026-05-04 13:11 | 63.00493 | -18.83661 | 33569 ft | 358 kts | 303° |
| 2026-05-04 13:11 | 63.01457 | -18.86653 | 33211 ft | 353 kts | 303° |
| 2026-05-04 13:11 | 63.03339 | -18.92446 | 32539 ft | 350 kts | 304° |
| 2026-05-04 13:12 | 63.04296 | -18.95380 | 32188 ft | 350 kts | 304° |
| 2026-05-04 13:12 | 63.05711 | -18.99718 | 31824 ft | 346 kts | 304° |
| 2026-05-04 13:12 | 63.07106 | -19.03994 | 31469 ft | 341 kts | 304° |
| 2026-05-04 13:12 | 63.08481 | -19.08213 | 31123 ft | 337 kts | 304° |
| 2026-05-04 13:13 | 63.09846 | -19.12408 | 30715 ft | 334 kts | 304° |
| 2026-05-04 13:13 | 63.11196 | -19.16565 | 30338 ft | 331 kts | 304° |
| 2026-05-04 13:13 | 63.12529 | -19.20675 | 29865 ft | 327 kts | 304° |
| 2026-05-04 13:13 | 63.13840 | -19.24725 | 29556 ft | 321 kts | 304° |
| 2026-05-04 13:14 | 63.15118 | -19.28681 | 29222 ft | 320 kts | 304° |
| 2026-05-04 13:14 | 63.16411 | -19.32691 | 28859 ft | 320 kts | 304° |
| 2026-05-04 13:14 | 63.17700 | -19.36695 | 28499 ft | 318 kts | 303° |
| 2026-05-04 13:14 | 63.18977 | -19.40668 | 28143 ft | 316 kts | 303° |
| 2026-05-04 13:15 | 63.20244 | -19.44618 | 27780 ft | 314 kts | 303° |
| 2026-05-04 13:15 | 63.21503 | -19.48546 | 27416 ft | 312 kts | 303° |
| 2026-05-04 13:15 | 63.22754 | -19.52458 | 27053 ft | 310 kts | 303° |
| 2026-05-04 13:15 | 63.23995 | -19.56345 | 26695 ft | 308 kts | 303° |
| 2026-05-04 13:16 | 63.25227 | -19.60211 | 26338 ft | 306 kts | 303° |
| 2026-05-04 13:16 | 63.26451 | -19.64059 | 25987 ft | 304 kts | 303° |
| 2026-05-04 13:16 | 63.27664 | -19.67879 | 25635 ft | 302 kts | 303° |
| 2026-05-04 13:16 | 63.28868 | -19.71677 | 25279 ft | 300 kts | 303° |
| 2026-05-04 13:17 | 63.30065 | -19.75457 | 24924 ft | 298 kts | 303° |
| 2026-05-04 13:17 | 63.31255 | -19.79222 | 24581 ft | 296 kts | 303° |
| 2026-05-04 13:17 | 63.32435 | -19.82964 | 24226 ft | 295 kts | 303° |
| 2026-05-04 13:17 | 63.33610 | -19.86692 | 23870 ft | 293 kts | 303° |
| 2026-05-04 13:18 | 63.34774 | -19.90394 | 23482 ft | 291 kts | 303° |
| 2026-05-04 13:18 | 63.35931 | -19.94079 | 23112 ft | 289 kts | 303° |
| 2026-05-04 13:18 | 63.37081 | -19.97749 | 22753 ft | 287 kts | 303° |
| 2026-05-04 13:18 | 63.38219 | -20.01386 | 22402 ft | 286 kts | 303° |
| 2026-05-04 13:19 | 63.39353 | -20.05016 | 22047 ft | 284 kts | 303° |
| 2026-05-04 13:19 | 63.40481 | -20.08630 | 21705 ft | 282 kts | 303° |
| 2026-05-04 13:19 | 63.41599 | -20.12221 | 21363 ft | 281 kts | 303° |
| 2026-05-04 13:19 | 63.42711 | -20.15797 | 21021 ft | 279 kts | 303° |
| 2026-05-04 13:20 | 63.43817 | -20.19360 | 20683 ft | 278 kts | 303° |
| 2026-05-04 13:20 | 63.44913 | -20.22896 | 20352 ft | 276 kts | 303° |
| 2026-05-04 13:20 | 63.46007 | -20.26412 | 20007 ft | 275 kts | 303° |
| 2026-05-04 13:20 | 63.47091 | -20.29913 | 19679 ft | 273 kts | 303° |
| 2026-05-04 13:21 | 63.48151 | -20.33356 | 19301 ft | 272 kts | 303° |
| 2026-05-04 13:21 | 63.49226 | -20.36848 | 19006 ft | 273 kts | 303° |
| 2026-05-04 13:21 | 63.50305 | -20.40364 | 18674 ft | 273 kts | 303° |
| 2026-05-04 13:21 | 63.51380 | -20.43866 | 18326 ft | 272 kts | 303° |
| 2026-05-04 13:22 | 63.52446 | -20.47346 | 17983 ft | 270 kts | 303° |
| 2026-05-04 13:22 | 63.53502 | -20.50797 | 17642 ft | 267 kts | 303° |
| 2026-05-04 13:22 | 63.54551 | -20.54228 | 17313 ft | 266 kts | 303° |
| 2026-05-04 13:22 | 63.55512 | -20.57750 | 17009 ft | 264 kts | 296° |
| 2026-05-04 13:23 | 63.56174 | -20.61594 | 16724 ft | 265 kts | 289° |
| 2026-05-04 13:23 | 63.56688 | -20.65555 | 16419 ft | 264 kts | 288° |
| 2026-05-04 13:23 | 63.57174 | -20.69535 | 16106 ft | 264 kts | 288° |
| 2026-05-04 13:23 | 63.57655 | -20.73505 | 15773 ft | 263 kts | 288° |
| 2026-05-04 13:24 | 63.58135 | -20.77460 | 15452 ft | 262 kts | 288° |
| 2026-05-04 13:24 | 63.58613 | -20.81394 | 15134 ft | 261 kts | 288° |
| 2026-05-04 13:24 | 63.59083 | -20.85265 | 14811 ft | 260 kts | 288° |
| 2026-05-04 13:25 | 63.60031 | -20.93079 | 14174 ft | 258 kts | 288° |
| 2026-05-04 13:25 | 63.60502 | -20.96967 | 13830 ft | 258 kts | 288° |
| 2026-05-04 13:25 | 63.60971 | -21.00852 | 13499 ft | 257 kts | 288° |
| 2026-05-04 13:25 | 63.61438 | -21.04735 | 13168 ft | 258 kts | 288° |
| 2026-05-04 13:26 | 63.61907 | -21.08634 | 12845 ft | 258 kts | 288° |
| 2026-05-04 13:26 | 63.62373 | -21.12529 | 12523 ft | 258 kts | 288° |
| 2026-05-04 13:26 | 63.62842 | -21.16445 | 12189 ft | 259 kts | 288° |
| 2026-05-04 13:26 | 63.63307 | -21.20355 | 11885 ft | 259 kts | 288° |
| 2026-05-04 13:27 | 63.63773 | -21.24276 | 11575 ft | 260 kts | 288° |
| 2026-05-04 13:27 | 63.64239 | -21.28207 | 11248 ft | 260 kts | 288° |
| 2026-05-04 13:27 | 63.64694 | -21.32072 | 11108 ft | 249 kts | 288° |
| 2026-05-04 13:27 | 63.65126 | -21.35767 | 11034 ft | 238 kts | 288° |
| 2026-05-04 13:28 | 63.65541 | -21.39303 | 10885 ft | 232 kts | 288° |
| 2026-05-04 13:28 | 63.65954 | -21.42810 | 10592 ft | 231 kts | 289° |
| 2026-05-04 13:28 | 63.66363 | -21.46295 | 10330 ft | 230 kts | 289° |
| 2026-05-04 13:28 | 63.66770 | -21.49771 | 10071 ft | 229 kts | 289° |
| 2026-05-04 13:29 | 63.67171 | -21.53205 | 9793 ft | 229 kts | 289° |
| 2026-05-04 13:29 | 63.67576 | -21.56686 | 9532 ft | 230 kts | 288° |
| 2026-05-04 13:29 | 63.67980 | -21.60170 | 9294 ft | 231 kts | 288° |
| 2026-05-04 13:29 | 63.68387 | -21.63686 | 9018 ft | 233 kts | 288° |
| 2026-05-04 13:30 | 63.68795 | -21.67222 | 8756 ft | 233 kts | 288° |
| 2026-05-04 13:30 | 63.69202 | -21.70755 | 8500 ft | 233 kts | 288° |
| 2026-05-04 13:30 | 63.69607 | -21.74288 | 8229 ft | 233 kts | 288° |
| 2026-05-04 13:30 | 63.70012 | -21.77825 | 7960 ft | 233 kts | 288° |
| 2026-05-04 13:31 | 63.70418 | -21.81373 | 7709 ft | 234 kts | 288° |
| 2026-05-04 13:31 | 63.70822 | -21.84923 | 7438 ft | 234 kts | 288° |
| 2026-05-04 13:31 | 63.71226 | -21.88472 | 7175 ft | 234 kts | 288° |
| 2026-05-04 13:31 | 63.71630 | -21.92038 | 6816 ft | 236 kts | 288° |
| 2026-05-04 13:32 | 63.72040 | -21.95654 | 6425 ft | 237 kts | 287° |
| 2026-05-04 13:32 | 63.72444 | -21.99238 | 6142 ft | 235 kts | 287° |
| 2026-05-04 13:32 | 63.72845 | -22.02802 | 5897 ft | 235 kts | 287° |
| 2026-05-04 13:32 | 63.73247 | -22.06383 | 5631 ft | 236 kts | 287° |
| 2026-05-04 13:33 | 63.73649 | -22.09970 | 5364 ft | 236 kts | 287° |
| 2026-05-04 13:33 | 63.74050 | -22.13561 | 5111 ft | 236 kts | 287° |
| 2026-05-04 13:33 | 63.74450 | -22.17158 | 4834 ft | 236 kts | 287° |
| 2026-05-04 13:33 | 63.74843 | -22.20703 | 4672 ft | 228 kts | 287° |
| 2026-05-04 13:34 | 63.75219 | -22.24102 | 4599 ft | 219 kts | 287° |
| 2026-05-04 13:34 | 63.75586 | -22.27440 | 4375 ft | 218 kts | 288° |
| 2026-05-04 13:34 | 63.75951 | -22.30752 | 4135 ft | 216 kts | 288° |
| 2026-05-04 13:34 | 63.76315 | -22.34044 | 3913 ft | 216 kts | 288° |
| 2026-05-04 13:35 | 63.76685 | -22.37294 | 3671 ft | 216 kts | 290° |
| 2026-05-04 13:35 | 63.77660 | -22.43637 | 3472 ft | 211 kts | 293° |
| 2026-05-04 13:35 | 63.78152 | -22.46665 | 3267 ft | 202 kts | 294° |
| 2026-05-04 13:36 | 63.78630 | -22.49611 | 3004 ft | 196 kts | 294° |
| 2026-05-04 13:36 | 63.79092 | -22.52459 | 2771 ft | 189 kts | 294° |
| 2026-05-04 13:36 | 63.79546 | -22.55261 | 2592 ft | 190 kts | 294° |
| 2026-05-04 13:36 | 63.80159 | -22.57987 | 2423 ft | 198 kts | 315° |
| 2026-05-04 13:37 | 63.81312 | -22.59545 | 2132 ft | 195 kts | 342° |
| 2026-05-04 13:37 | 63.82625 | -22.60316 | 1888 ft | 194 kts | 351° |
| 2026-05-04 13:37 | 63.83922 | -22.60494 | 1803 ft | 178 kts | 359° |
| 2026-05-04 13:37 | 63.84712 | -22.60502 | 1807 ft | 168 kts | 359° |
| 2026-05-04 13:38 | 63.86270 | -22.60497 | 1819 ft | 167 kts | 0° |
| 2026-05-04 13:38 | 63.87428 | -22.60505 | 1824 ft | 165 kts | 0° |
| 2026-05-04 13:38 | 63.88547 | -22.60528 | 1821 ft | 153 kts | 0° |
| 2026-05-04 13:38 | 63.89582 | -22.60547 | 1673 ft | 148 kts | 0° |
| 2026-05-04 13:39 | 63.90606 | -22.60545 | 1425 ft | 147 kts | 1° |
| 2026-05-04 13:39 | 63.91631 | -22.60542 | 1184 ft | 147 kts | 0° |
| 2026-05-04 13:39 | 63.92638 | -22.60542 | 969 ft | 140 kts | 0° |
| 2026-05-04 13:39 | 63.93568 | -22.60548 | 751 ft | 128 kts | 1° |
| 2026-05-04 13:40 | 63.94453 | -22.60556 | 598 ft | 128 kts | 1° |
| 2026-05-04 13:40 | 63.95346 | -22.60544 | 412 ft | 128 kts | 1° |
| 2026-05-04 13:40 | 63.96228 | -22.60546 | 226 ft | 125 kts | 1° |
| 2026-05-04 13:40 | 63.97057 | -22.60540 | 164 ft | 106 kts | 0° |
| 2026-05-04 13:41 | 63.97610 | -22.60541 | 177 ft | 54 kts | 0° |
| 2026-05-04 13:41 | 63.97943 | -22.60548 | 173 ft | 37 kts | 357° |
| 2026-05-04 13:41 | 63.98161 | -22.60675 | 173 ft | 27 kts | 333° |
| 2026-05-04 13:42 | 63.98403 | -22.60946 | 168 ft | 16 kts | 0° |
| 2026-05-04 13:42 | 63.98512 | -22.60940 | 173 ft | 16 kts | 2° |
| 2026-05-04 13:42 | 63.98626 | -22.60937 | 171 ft | 16 kts | 1° |
| 2026-05-04 13:42 | 63.98739 | -22.60935 | 169 ft | 16 kts | 359° |
| 2026-05-04 13:43 | 63.98849 | -22.60936 | 171 ft | 15 kts | 1° |
| 2026-05-04 13:43 | 63.98946 | -22.60934 | 174 ft | 14 kts | 359° |
| 2026-05-04 13:43 | 63.99062 | -22.60934 | 172 ft | 20 kts | 0° |
| 2026-05-04 13:43 | 63.99173 | -22.61030 | 165 ft | 19 kts | 283° |
| 2026-05-04 13:44 | 63.99174 | -22.61333 | 159 ft | 21 kts | 270° |
| 2026-05-04 13:44 | 63.99175 | -22.61695 | 150 ft | 25 kts | 271° |
| 2026-05-04 13:44 | 63.99174 | -22.62008 | 146 ft | 17 kts | 272° |
| 2026-05-04 13:44 | 63.99174 | -22.62227 | 146 ft | 10 kts | 270° |
| 2026-05-04 13:45 | 63.99174 | -22.62362 | 146 ft | 6 kts | 268° |
| 2026-05-04 13:45 | 63.99180 | -22.62425 | 146 ft | 3 kts | 301° |
| 2026-05-04 13:45 | 63.99193 | -22.62453 | 146 ft | 0 kts | 337° |
| 2026-05-04 13:46 | 63.99195 | -22.62454 | 146 ft | 0 kts | 343° |
| 2026-05-04 13:46 | 63.99202 | -22.62456 | 146 ft | 4 kts | 353° |
| 2026-05-04 13:46 | 63.99230 | -22.62454 | 146 ft | 4 kts | 2° |
| 2026-05-04 13:46 | 63.99247 | -22.62453 | 146 ft | 0 kts | 1° |
| 2026-05-04 13:48 | 63.99257 | -22.62452 | 145 ft | 2 kts | 0° |
| 2026-05-04 13:48 | 63.99265 | -22.62452 | 144 ft | 0 kts | 0° |
| 2026-05-04 13:49 | 63.99271 | -22.62452 | 148 ft | 1 kts | 358° |
| 2026-05-04 13:50 | 63.99273 | -22.62452 | 148 ft | 1 kts | 360° |
| 2026-05-04 13:50 | 63.99281 | -22.62452 | 146 ft | 0 kts | 0° |